sensor_id;sensor_type;location;lat;lon;timestamp;temperature;humidity
34989;DHT22;21192;40.182;44.516;2023-09-19T00:01:40;19.10;64.10
34989;DHT22;21192;40.182;44.516;2023-09-19T00:04:08;19.10;63.40
34989;DHT22;21192;40.182;44.516;2023-09-19T00:06:36;19.10;63.40
34989;DHT22;21192;40.182;44.516;2023-09-19T00:09:03;19.10;63.40
34989;DHT22;21192;40.182;44.516;2023-09-19T00:11:29;19.10;63.50
34989;DHT22;21192;40.182;44.516;2023-09-19T00:13:55;19.10;63.60
34989;DHT22;21192;40.182;44.516;2023-09-19T00:16:20;19.10;63.50
34989;DHT22;21192;40.182;44.516;2023-09-19T00:18:47;19.20;63.40
34989;DHT22;21192;40.182;44.516;2023-09-19T00:21:14;19.20;63.40
34989;DHT22;21192;40.182;44.516;2023-09-19T00:23:41;19.20;63.30
34989;DHT22;21192;40.182;44.516;2023-09-19T00:26:07;19.10;63.10
34989;DHT22;21192;40.182;44.516;2023-09-19T00:28:33;19.10;63.00
34989;DHT22;21192;40.182;44.516;2023-09-19T00:30:59;19.00;62.90
34989;DHT22;21192;40.182;44.516;2023-09-19T00:33:27;19.00;63.00
34989;DHT22;21192;40.182;44.516;2023-09-19T00:35:56;18.90;63.10
34989;DHT22;21192;40.182;44.516;2023-09-19T00:38:22;18.80;63.20
34989;DHT22;21192;40.182;44.516;2023-09-19T00:40:53;18.80;63.40
34989;DHT22;21192;40.182;44.516;2023-09-19T00:43:22;18.80;63.50
34989;DHT22;21192;40.182;44.516;2023-09-19T00:45:52;18.80;63.60
34989;DHT22;21192;40.182;44.516;2023-09-19T00:48:22;18.70;63.70
34989;DHT22;21192;40.182;44.516;2023-09-19T00:50:49;18.60;64.00
34989;DHT22;21192;40.182;44.516;2023-09-19T00:53:21;18.70;64.10
34989;DHT22;21192;40.182;44.516;2023-09-19T00:55:48;18.70;64.20
34989;DHT22;21192;40.182;44.516;2023-09-19T00:58:17;18.60;64.20
34989;DHT22;21192;40.182;44.516;2023-09-19T01:00:44;18.50;64.60
34989;DHT22;21192;40.182;44.516;2023-09-19T01:03:10;18.50;64.80
34989;DHT22;21192;40.182;44.516;2023-09-19T01:05:39;18.50;64.80
34989;DHT22;21192;40.182;44.516;2023-09-19T01:08:05;18.50;64.80
34989;DHT22;21192;40.182;44.516;2023-09-19T01:10:33;18.50;64.80
34989;DHT22;21192;40.182;44.516;2023-09-19T01:15:50;18.50;65.00
34989;DHT22;21192;40.182;44.516;2023-09-19T01:29:39;18.50;64.80
34989;DHT22;21192;40.182;44.516;2023-09-19T01:32:06;18.50;64.90
34989;DHT22;21192;40.182;44.516;2023-09-19T01:34:48;18.50;64.90
34989;DHT22;21192;40.182;44.516;2023-09-19T01:37:18;18.40;65.10
34989;DHT22;21192;40.182;44.516;2023-09-19T01:39:54;18.40;65.20
34989;DHT22;21192;40.182;44.516;2023-09-19T01:45:13;18.40;65.20
34989;DHT22;21192;40.182;44.516;2023-09-19T01:47:51;18.40;65.20
34989;DHT22;21192;40.182;44.516;2023-09-19T01:52:59;18.40;65.10
34989;DHT22;21192;40.182;44.516;2023-09-19T01:55:30;18.30;65.20
34989;DHT22;21192;40.182;44.516;2023-09-19T01:58:14;18.30;65.40
34989;DHT22;21192;40.182;44.516;2023-09-19T02:00:43;18.40;65.40
34989;DHT22;21192;40.182;44.516;2023-09-19T02:03:11;18.40;65.30
34989;DHT22;21192;40.182;44.516;2023-09-19T02:05:38;18.30;65.40
34989;DHT22;21192;40.182;44.516;2023-09-19T02:08:05;18.30;65.60
34989;DHT22;21192;40.182;44.516;2023-09-19T02:10:31;18.30;65.70
34989;DHT22;21192;40.182;44.516;2023-09-19T02:12:56;18.30;65.70
34989;DHT22;21192;40.182;44.516;2023-09-19T02:15:22;18.30;65.70
34989;DHT22;21192;40.182;44.516;2023-09-19T02:17:48;18.40;65.80
34989;DHT22;21192;40.182;44.516;2023-09-19T02:20:14;18.40;65.80
34989;DHT22;21192;40.182;44.516;2023-09-19T02:22:43;18.40;65.80
34989;DHT22;21192;40.182;44.516;2023-09-19T02:25:09;18.40;65.90
34989;DHT22;21192;40.182;44.516;2023-09-19T02:27:36;18.30;66.10
34989;DHT22;21192;40.182;44.516;2023-09-19T02:30:03;18.20;66.20
34989;DHT22;21192;40.182;44.516;2023-09-19T02:32:30;18.30;66.30
34989;DHT22;21192;40.182;44.516;2023-09-19T02:35:02;18.30;66.30
34989;DHT22;21192;40.182;44.516;2023-09-19T02:37:30;18.40;66.30
34989;DHT22;21192;40.182;44.516;2023-09-19T02:39:56;18.30;66.40
34989;DHT22;21192;40.182;44.516;2023-09-19T02:42:22;18.30;66.50
34989;DHT22;21192;40.182;44.516;2023-09-19T02:44:48;18.30;66.40
34989;DHT22;21192;40.182;44.516;2023-09-19T02:47:14;18.30;66.40
34989;DHT22;21192;40.182;44.516;2023-09-19T02:49:40;18.30;66.50
34989;DHT22;21192;40.182;44.516;2023-09-19T02:52:08;18.20;66.80
34989;DHT22;21192;40.182;44.516;2023-09-19T02:54:33;18.30;66.80
34989;DHT22;21192;40.182;44.516;2023-09-19T02:56:59;18.30;66.70
34989;DHT22;21192;40.182;44.516;2023-09-19T02:59:25;18.30;66.60
34989;DHT22;21192;40.182;44.516;2023-09-19T03:01:51;18.30;67.40
34989;DHT22;21192;40.182;44.516;2023-09-19T03:04:19;18.30;66.60
34989;DHT22;21192;40.182;44.516;2023-09-19T03:06:46;18.30;66.70
34989;DHT22;21192;40.182;44.516;2023-09-19T03:09:12;18.40;66.70
34989;DHT22;21192;40.182;44.516;2023-09-19T03:11:39;18.40;66.40
34989;DHT22;21192;40.182;44.516;2023-09-19T03:14:06;18.50;66.10
34989;DHT22;21192;40.182;44.516;2023-09-19T03:16:32;18.60;66.00
34989;DHT22;21192;40.182;44.516;2023-09-19T03:18:59;19.00;65.80
34989;DHT22;21192;40.182;44.516;2023-09-19T03:21:25;19.80;64.90
34989;DHT22;21192;40.182;44.516;2023-09-19T03:23:51;20.80;63.00
34989;DHT22;21192;40.182;44.516;2023-09-19T03:26:17;21.90;61.10
34989;DHT22;21192;40.182;44.516;2023-09-19T03:28:43;23.00;59.00
34989;DHT22;21192;40.182;44.516;2023-09-19T03:31:11;24.10;56.80
34989;DHT22;21192;40.182;44.516;2023-09-19T03:33:37;25.20;54.80
34989;DHT22;21192;40.182;44.516;2023-09-19T03:36:04;26.30;52.80
34989;DHT22;21192;40.182;44.516;2023-09-19T03:38:31;27.20;51.10
34989;DHT22;21192;40.182;44.516;2023-09-19T03:40:58;28.20;49.40
34989;DHT22;21192;40.182;44.516;2023-09-19T03:43:24;29.10;47.80
34989;DHT22;21192;40.182;44.516;2023-09-19T03:45:50;30.00;46.40
34989;DHT22;21192;40.182;44.516;2023-09-19T03:48:19;30.90;45.10
34989;DHT22;21192;40.182;44.516;2023-09-19T03:50:45;31.60;43.80
34989;DHT22;21192;40.182;44.516;2023-09-19T03:53:11;32.40;42.80
34989;DHT22;21192;40.182;44.516;2023-09-19T03:55:36;33.10;41.70
34989;DHT22;21192;40.182;44.516;2023-09-19T03:58:04;33.80;40.70
34989;DHT22;21192;40.182;44.516;2023-09-19T04:00:31;34.50;39.90
34989;DHT22;21192;40.182;44.516;2023-09-19T04:02:56;35.20;39.10
34989;DHT22;21192;40.182;44.516;2023-09-19T04:05:23;35.90;38.30
34989;DHT22;21192;40.182;44.516;2023-09-19T04:07:49;36.60;37.40
34989;DHT22;21192;40.182;44.516;2023-09-19T04:10:16;37.10;36.50
34989;DHT22;21192;40.182;44.516;2023-09-19T04:12:53;37.60;36.00
34989;DHT22;21192;40.182;44.516;2023-09-19T04:15:20;38.00;35.20
34989;DHT22;21192;40.182;44.516;2023-09-19T04:17:52;38.60;34.70
34989;DHT22;21192;40.182;44.516;2023-09-19T04:20:18;39.30;34.10
34989;DHT22;21192;40.182;44.516;2023-09-19T04:22:50;39.70;33.40
34989;DHT22;21192;40.182;44.516;2023-09-19T04:25:17;40.40;32.80
34989;DHT22;21192;40.182;44.516;2023-09-19T04:27:44;41.00;32.30
34989;DHT22;21192;40.182;44.516;2023-09-19T04:30:10;41.60;31.80
34989;DHT22;21192;40.182;44.516;2023-09-19T04:32:38;41.90;31.30
34989;DHT22;21192;40.182;44.516;2023-09-19T04:35:08;42.40;31.10
34989;DHT22;21192;40.182;44.516;2023-09-19T04:37:38;42.90;30.80
34989;DHT22;21192;40.182;44.516;2023-09-19T04:40:09;43.20;30.30
34989;DHT22;21192;40.182;44.516;2023-09-19T04:42:41;43.30;30.00
34989;DHT22;21192;40.182;44.516;2023-09-19T04:45:08;43.60;30.10
34989;DHT22;21192;40.182;44.516;2023-09-19T04:47:38;43.50;30.10
34989;DHT22;21192;40.182;44.516;2023-09-19T04:50:08;43.70;30.20
34989;DHT22;21192;40.182;44.516;2023-09-19T04:52:41;43.90;30.00
34989;DHT22;21192;40.182;44.516;2023-09-19T04:55:13;43.70;29.90
34989;DHT22;21192;40.182;44.516;2023-09-19T04:57:45;44.00;29.80
34989;DHT22;21192;40.182;44.516;2023-09-19T05:00:19;44.10;29.60
34989;DHT22;21192;40.182;44.516;2023-09-19T05:02:52;44.10;29.40
34989;DHT22;21192;40.182;44.516;2023-09-19T05:05:18;44.30;29.40
34989;DHT22;21192;40.182;44.516;2023-09-19T05:07:45;44.40;29.40
34989;DHT22;21192;40.182;44.516;2023-09-19T05:10:12;43.10;29.30
34989;DHT22;21192;40.182;44.516;2023-09-19T05:12:38;41.10;30.00
34989;DHT22;21192;40.182;44.516;2023-09-19T05:15:07;39.30;31.00
34989;DHT22;21192;40.182;44.516;2023-09-19T05:17:34;37.50;32.50
34989;DHT22;21192;40.182;44.516;2023-09-19T05:20:00;36.10;33.90
34989;DHT22;21192;40.182;44.516;2023-09-19T05:22:31;35.10;34.90
34989;DHT22;21192;40.182;44.516;2023-09-19T05:24:58;34.10;36.00
34989;DHT22;21192;40.182;44.516;2023-09-19T05:27:24;33.20;37.70
34989;DHT22;21192;40.182;44.516;2023-09-19T05:29:50;32.40;38.20
34989;DHT22;21192;40.182;44.516;2023-09-19T05:32:19;31.70;39.10
34989;DHT22;21192;40.182;44.516;2023-09-19T05:34:45;30.70;40.10
34989;DHT22;21192;40.182;44.516;2023-09-19T05:37:13;30.10;41.20
34989;DHT22;21192;40.182;44.516;2023-09-19T05:39:39;30.30;41.60
34989;DHT22;21192;40.182;44.516;2023-09-19T05:42:04;31.50;41.50
34989;DHT22;21192;40.182;44.516;2023-09-19T05:44:30;31.80;41.10
34989;DHT22;21192;40.182;44.516;2023-09-19T05:46:57;31.60;40.90
34989;DHT22;21192;40.182;44.516;2023-09-19T05:49:23;31.40;41.20
34989;DHT22;21192;40.182;44.516;2023-09-19T05:51:50;31.20;41.20
34989;DHT22;21192;40.182;44.516;2023-09-19T05:54:19;31.00;41.10
34989;DHT22;21192;40.182;44.516;2023-09-19T05:56:45;30.40;41.50
34989;DHT22;21192;40.182;44.516;2023-09-19T05:59:12;29.90;42.10
34989;DHT22;21192;40.182;44.516;2023-09-19T06:01:42;29.50;42.80
34989;DHT22;21192;40.182;44.516;2023-09-19T06:04:08;29.10;43.20
34989;DHT22;21192;40.182;44.516;2023-09-19T06:06:34;28.80;43.60
34989;DHT22;21192;40.182;44.516;2023-09-19T06:09:04;28.50;44.10
34989;DHT22;21192;40.182;44.516;2023-09-19T06:11:36;28.00;44.70
34989;DHT22;21192;40.182;44.516;2023-09-19T06:14:03;27.70;44.90
34989;DHT22;21192;40.182;44.516;2023-09-19T06:16:30;27.50;45.20
34989;DHT22;21192;40.182;44.516;2023-09-19T06:18:57;27.40;45.30
34989;DHT22;21192;40.182;44.516;2023-09-19T06:21:26;27.20;45.70
34989;DHT22;21192;40.182;44.516;2023-09-19T06:23:55;26.80;46.70
34989;DHT22;21192;40.182;44.516;2023-09-19T06:26:23;26.70;46.40
34989;DHT22;21192;40.182;44.516;2023-09-19T06:28:52;26.50;46.70
34989;DHT22;21192;40.182;44.516;2023-09-19T06:31:18;26.50;46.70
34989;DHT22;21192;40.182;44.516;2023-09-19T06:33:44;26.40;46.70
34989;DHT22;21192;40.182;44.516;2023-09-19T06:36:10;26.40;46.80
34989;DHT22;21192;40.182;44.516;2023-09-19T06:38:36;26.10;47.40
34989;DHT22;21192;40.182;44.516;2023-09-19T06:41:05;25.70;48.30
34989;DHT22;21192;40.182;44.516;2023-09-19T06:43:31;25.40;49.00
34989;DHT22;21192;40.182;44.516;2023-09-19T06:45:59;25.40;49.10
34989;DHT22;21192;40.182;44.516;2023-09-19T06:48:26;25.40;49.00
34989;DHT22;21192;40.182;44.516;2023-09-19T06:50:56;25.40;49.20
34989;DHT22;21192;40.182;44.516;2023-09-19T06:53:24;25.50;49.20
34989;DHT22;21192;40.182;44.516;2023-09-19T06:55:53;25.50;49.20
34989;DHT22;21192;40.182;44.516;2023-09-19T06:58:19;25.50;49.40
34989;DHT22;21192;40.182;44.516;2023-09-19T07:00:46;25.70;48.90
34989;DHT22;21192;40.182;44.516;2023-09-19T07:03:14;25.80;48.70
34989;DHT22;21192;40.182;44.516;2023-09-19T07:05:42;25.70;48.60
34989;DHT22;21192;40.182;44.516;2023-09-19T07:08:09;25.70;48.70
34989;DHT22;21192;40.182;44.516;2023-09-19T07:10:38;25.60;48.90
34989;DHT22;21192;40.182;44.516;2023-09-19T07:13:07;25.60;48.90
34989;DHT22;21192;40.182;44.516;2023-09-19T07:15:37;25.50;49.00
34989;DHT22;21192;40.182;44.516;2023-09-19T07:18:13;25.60;49.10
34989;DHT22;21192;40.182;44.516;2023-09-19T07:20:40;25.60;49.00
34989;DHT22;21192;40.182;44.516;2023-09-19T07:23:15;25.60;48.80
34989;DHT22;21192;40.182;44.516;2023-09-19T07:25:41;25.60;48.80
34989;DHT22;21192;40.182;44.516;2023-09-19T07:28:07;25.50;48.90
34989;DHT22;21192;40.182;44.516;2023-09-19T07:30:36;25.40;48.90
34989;DHT22;21192;40.182;44.516;2023-09-19T07:33:03;25.40;48.90
34989;DHT22;21192;40.182;44.516;2023-09-19T07:35:29;25.40;48.90
34989;DHT22;21192;40.182;44.516;2023-09-19T07:37:55;25.40;49.00
34989;DHT22;21192;40.182;44.516;2023-09-19T07:40:22;25.30;48.90
34989;DHT22;21192;40.182;44.516;2023-09-19T07:42:49;25.30;49.00
34989;DHT22;21192;40.182;44.516;2023-09-19T07:45:16;25.30;49.00
34989;DHT22;21192;40.182;44.516;2023-09-19T07:47:48;25.30;49.10
34989;DHT22;21192;40.182;44.516;2023-09-19T07:50:18;25.20;49.80
34989;DHT22;21192;40.182;44.516;2023-09-19T07:52:46;25.10;49.30
34989;DHT22;21192;40.182;44.516;2023-09-19T07:55:12;25.00;49.70
34989;DHT22;21192;40.182;44.516;2023-09-19T07:57:43;24.80;50.10
34989;DHT22;21192;40.182;44.516;2023-09-19T08:00:10;24.70;50.30
34989;DHT22;21192;40.182;44.516;2023-09-19T08:02:36;24.60;50.50
34989;DHT22;21192;40.182;44.516;2023-09-19T08:05:06;24.60;50.70
34989;DHT22;21192;40.182;44.516;2023-09-19T08:07:36;24.60;50.80
34989;DHT22;21192;40.182;44.516;2023-09-19T08:10:03;24.60;50.80
34989;DHT22;21192;40.182;44.516;2023-09-19T08:12:29;24.70;50.80
34989;DHT22;21192;40.182;44.516;2023-09-19T08:14:56;24.60;50.80
34989;DHT22;21192;40.182;44.516;2023-09-19T08:17:22;24.60;50.90
34989;DHT22;21192;40.182;44.516;2023-09-19T08:19:50;24.50;51.00
34989;DHT22;21192;40.182;44.516;2023-09-19T08:22:21;24.50;51.10
34989;DHT22;21192;40.182;44.516;2023-09-19T08:24:49;24.40;51.20
34989;DHT22;21192;40.182;44.516;2023-09-19T08:27:15;24.40;51.30
34989;DHT22;21192;40.182;44.516;2023-09-19T08:29:43;24.40;51.20
34989;DHT22;21192;40.182;44.516;2023-09-19T08:32:12;24.30;51.40
34989;DHT22;21192;40.182;44.516;2023-09-19T08:34:37;24.20;51.60
34989;DHT22;21192;40.182;44.516;2023-09-19T08:37:04;24.30;51.70
34989;DHT22;21192;40.182;44.516;2023-09-19T08:39:30;24.30;51.60
34989;DHT22;21192;40.182;44.516;2023-09-19T08:41:59;24.30;51.60
34989;DHT22;21192;40.182;44.516;2023-09-19T08:44:26;24.30;51.60
34989;DHT22;21192;40.182;44.516;2023-09-19T08:47:09;24.30;51.70
34989;DHT22;21192;40.182;44.516;2023-09-19T08:49:53;24.30;51.90
34989;DHT22;21192;40.182;44.516;2023-09-19T08:52:25;24.30;51.90
34989;DHT22;21192;40.182;44.516;2023-09-19T08:54:57;24.20;51.90
34989;DHT22;21192;40.182;44.516;2023-09-19T08:57:25;24.20;52.10
34989;DHT22;21192;40.182;44.516;2023-09-19T08:59:56;24.20;52.10
34989;DHT22;21192;40.182;44.516;2023-09-19T09:02:22;24.20;51.90
34989;DHT22;21192;40.182;44.516;2023-09-19T09:04:49;24.20;51.90
34989;DHT22;21192;40.182;44.516;2023-09-19T09:07:16;24.20;52.10
34989;DHT22;21192;40.182;44.516;2023-09-19T09:09:45;24.20;51.90
34989;DHT22;21192;40.182;44.516;2023-09-19T09:12:14;24.30;51.80
34989;DHT22;21192;40.182;44.516;2023-09-19T09:14:45;24.40;51.70
34989;DHT22;21192;40.182;44.516;2023-09-19T09:17:16;24.40;51.70
34989;DHT22;21192;40.182;44.516;2023-09-19T09:19:46;24.40;51.50
34989;DHT22;21192;40.182;44.516;2023-09-19T09:22:13;24.40;51.60
34989;DHT22;21192;40.182;44.516;2023-09-19T09:24:52;24.50;51.80
34989;DHT22;21192;40.182;44.516;2023-09-19T09:27:20;24.50;51.90
34989;DHT22;21192;40.182;44.516;2023-09-19T09:29:48;24.60;51.90
34989;DHT22;21192;40.182;44.516;2023-09-19T09:34:44;24.60;51.70
34989;DHT22;21192;40.182;44.516;2023-09-19T09:37:17;24.50;51.70
34989;DHT22;21192;40.182;44.516;2023-09-19T09:39:56;24.50;51.80
34989;DHT22;21192;40.182;44.516;2023-09-19T09:42:36;24.60;52.00
34989;DHT22;21192;40.182;44.516;2023-09-19T09:47:46;24.60;51.60
34989;DHT22;21192;40.182;44.516;2023-09-19T09:50:34;24.60;51.50
34989;DHT22;21192;40.182;44.516;2023-09-19T09:56:06;24.60;51.80
34989;DHT22;21192;40.182;44.516;2023-09-19T09:58:34;24.60;51.70
34989;DHT22;21192;40.182;44.516;2023-09-19T10:01:01;24.60;51.60
34989;DHT22;21192;40.182;44.516;2023-09-19T10:03:35;24.60;51.60
34989;DHT22;21192;40.182;44.516;2023-09-19T10:06:10;24.60;51.90
34989;DHT22;21192;40.182;44.516;2023-09-19T10:09:07;24.60;52.00
34989;DHT22;21192;40.182;44.516;2023-09-19T10:14:13;24.60;51.70
34989;DHT22;21192;40.182;44.516;2023-09-19T10:16:49;24.50;51.60
34989;DHT22;21192;40.182;44.516;2023-09-19T10:19:30;24.60;51.70
34989;DHT22;21192;40.182;44.516;2023-09-19T10:22:01;24.60;51.70
34989;DHT22;21192;40.182;44.516;2023-09-19T10:24:28;24.60;51.50
34989;DHT22;21192;40.182;44.516;2023-09-19T10:26:55;24.60;51.50
34989;DHT22;21192;40.182;44.516;2023-09-19T10:29:21;24.70;51.50
34989;DHT22;21192;40.182;44.516;2023-09-19T10:31:48;24.70;51.50
34989;DHT22;21192;40.182;44.516;2023-09-19T10:34:17;24.70;51.50
34989;DHT22;21192;40.182;44.516;2023-09-19T10:36:46;24.70;51.70
34989;DHT22;21192;40.182;44.516;2023-09-19T10:39:16;24.70;51.80
34989;DHT22;21192;40.182;44.516;2023-09-19T10:41:51;24.70;51.60
34989;DHT22;21192;40.182;44.516;2023-09-19T10:44:23;24.70;51.50
34989;DHT22;21192;40.182;44.516;2023-09-19T10:46:51;24.80;51.50
34989;DHT22;21192;40.182;44.516;2023-09-19T10:49:21;24.80;51.40
34989;DHT22;21192;40.182;44.516;2023-09-19T10:51:50;24.80;51.40
34989;DHT22;21192;40.182;44.516;2023-09-19T10:54:20;24.80;51.40
34989;DHT22;21192;40.182;44.516;2023-09-19T10:56:53;24.90;51.40
34989;DHT22;21192;40.182;44.516;2023-09-19T10:59:21;24.90;51.50
34989;DHT22;21192;40.182;44.516;2023-09-19T11:01:55;24.90;51.40
34989;DHT22;21192;40.182;44.516;2023-09-19T11:07:10;25.00;51.40
34989;DHT22;21192;40.182;44.516;2023-09-19T11:09:53;25.00;51.40
34989;DHT22;21192;40.182;44.516;2023-09-19T11:15:03;25.00;51.40
34989;DHT22;21192;40.182;44.516;2023-09-19T11:17:40;25.10;51.10
34989;DHT22;21192;40.182;44.516;2023-09-19T11:30:52;25.30;52.00
34989;DHT22;21192;40.182;44.516;2023-09-19T11:33:29;25.30;51.70
34989;DHT22;21192;40.182;44.516;2023-09-19T11:36:05;25.30;51.80
34989;DHT22;21192;40.182;44.516;2023-09-19T11:46:53;25.50;51.60
34989;DHT22;21192;40.182;44.516;2023-09-19T11:49:29;25.60;51.80
34989;DHT22;21192;40.182;44.516;2023-09-19T11:51:58;25.50;52.00
34989;DHT22;21192;40.182;44.516;2023-09-19T11:54:27;25.60;52.20
34989;DHT22;21192;40.182;44.516;2023-09-19T11:56:58;25.70;52.20
34989;DHT22;21192;40.182;44.516;2023-09-19T11:59:26;25.80;52.10
34989;DHT22;21192;40.182;44.516;2023-09-19T12:01:58;25.80;51.90
34989;DHT22;21192;40.182;44.516;2023-09-19T12:04:37;25.80;51.70
34989;DHT22;21192;40.182;44.516;2023-09-19T12:07:04;25.90;51.90
34989;DHT22;21192;40.182;44.516;2023-09-19T12:09:31;25.90;52.20
34989;DHT22;21192;40.182;44.516;2023-09-19T12:11:57;25.90;52.30
34989;DHT22;21192;40.182;44.516;2023-09-19T12:14:24;25.90;52.60
34989;DHT22;21192;40.182;44.516;2023-09-19T12:16:58;25.90;52.60
34989;DHT22;21192;40.182;44.516;2023-09-19T12:19:26;25.90;52.50
34989;DHT22;21192;40.182;44.516;2023-09-19T12:21:59;26.00;52.40
34989;DHT22;21192;40.182;44.516;2023-09-19T12:24:30;26.00;52.40
34989;DHT22;21192;40.182;44.516;2023-09-19T12:27:04;25.90;52.40
34989;DHT22;21192;40.182;44.516;2023-09-19T12:29:43;25.90;52.50
34989;DHT22;21192;40.182;44.516;2023-09-19T12:32:09;25.90;52.30
34989;DHT22;21192;40.182;44.516;2023-09-19T12:34:36;26.00;52.20
34989;DHT22;21192;40.182;44.516;2023-09-19T12:37:14;26.00;52.20
34989;DHT22;21192;40.182;44.516;2023-09-19T12:39:49;25.90;52.20
34989;DHT22;21192;40.182;44.516;2023-09-19T12:42:17;25.90;52.20
34989;DHT22;21192;40.182;44.516;2023-09-19T12:44:48;26.00;52.40
34989;DHT22;21192;40.182;44.516;2023-09-19T12:47:18;25.90;52.20
34989;DHT22;21192;40.182;44.516;2023-09-19T12:50:14;26.00;52.30
34989;DHT22;21192;40.182;44.516;2023-09-19T12:52:48;26.10;52.10
34989;DHT22;21192;40.182;44.516;2023-09-19T13:00:40;26.10;52.00
34989;DHT22;21192;40.182;44.516;2023-09-19T13:03:17;26.20;51.90
34989;DHT22;21192;40.182;44.516;2023-09-19T13:08:25;26.20;51.70
34989;DHT22;21192;40.182;44.516;2023-09-19T13:11:05;26.20;52.30
34989;DHT22;21192;40.182;44.516;2023-09-19T13:13:35;26.20;51.80
34989;DHT22;21192;40.182;44.516;2023-09-19T13:16:02;26.20;52.00
34989;DHT22;21192;40.182;44.516;2023-09-19T13:18:30;26.20;52.20
34989;DHT22;21192;40.182;44.516;2023-09-19T13:21:06;26.10;52.40
34989;DHT22;21192;40.182;44.516;2023-09-19T13:23:55;26.00;52.30
34989;DHT22;21192;40.182;44.516;2023-09-19T13:26:27;26.10;52.30
34989;DHT22;21192;40.182;44.516;2023-09-19T13:28:56;26.00;52.30
34989;DHT22;21192;40.182;44.516;2023-09-19T13:31:22;26.00;52.60
34989;DHT22;21192;40.182;44.516;2023-09-19T13:33:49;26.00;52.80
34989;DHT22;21192;40.182;44.516;2023-09-19T13:36:16;26.00;52.90
34989;DHT22;21192;40.182;44.516;2023-09-19T13:38:44;26.00;52.90
34989;DHT22;21192;40.182;44.516;2023-09-19T13:41:11;25.90;53.00
34989;DHT22;21192;40.182;44.516;2023-09-19T13:43:37;26.00;53.10
34989;DHT22;21192;40.182;44.516;2023-09-19T13:46:04;26.00;53.10
34989;DHT22;21192;40.182;44.516;2023-09-19T13:48:33;25.90;53.10
34989;DHT22;21192;40.182;44.516;2023-09-19T13:51:02;25.90;53.20
34989;DHT22;21192;40.182;44.516;2023-09-19T13:53:29;25.90;53.20
34989;DHT22;21192;40.182;44.516;2023-09-19T13:55:55;25.90;53.20
34989;DHT22;21192;40.182;44.516;2023-09-19T13:58:20;25.90;53.30
34989;DHT22;21192;40.182;44.516;2023-09-19T14:00:48;25.80;53.40
34989;DHT22;21192;40.182;44.516;2023-09-19T14:03:14;25.80;53.60
34989;DHT22;21192;40.182;44.516;2023-09-19T14:05:40;25.70;53.70
34989;DHT22;21192;40.182;44.516;2023-09-19T14:08:08;25.70;53.80
34989;DHT22;21192;40.182;44.516;2023-09-19T14:10:34;25.70;53.60
34989;DHT22;21192;40.182;44.516;2023-09-19T14:13:00;25.50;53.20
34989;DHT22;21192;40.182;44.516;2023-09-19T14:15:29;25.50;53.00
34989;DHT22;21192;40.182;44.516;2023-09-19T14:17:56;25.40;53.10
34989;DHT22;21192;40.182;44.516;2023-09-19T14:20:22;25.30;53.20
34989;DHT22;21192;40.182;44.516;2023-09-19T14:22:48;25.20;53.30
34989;DHT22;21192;40.182;44.516;2023-09-19T14:25:14;25.20;53.60
34989;DHT22;21192;40.182;44.516;2023-09-19T14:27:40;25.10;53.70
34989;DHT22;21192;40.182;44.516;2023-09-19T14:30:07;25.00;53.70
34989;DHT22;21192;40.182;44.516;2023-09-19T14:32:34;24.90;53.90
34989;DHT22;21192;40.182;44.516;2023-09-19T14:35:02;24.80;54.10
34989;DHT22;21192;40.182;44.516;2023-09-19T14:37:28;24.80;54.20
34989;DHT22;21192;40.182;44.516;2023-09-19T14:39:54;24.70;54.20
34989;DHT22;21192;40.182;44.516;2023-09-19T14:42:20;24.70;54.30
34989;DHT22;21192;40.182;44.516;2023-09-19T14:44:46;24.60;54.30
34989;DHT22;21192;40.182;44.516;2023-09-19T14:47:14;24.60;54.40
34989;DHT22;21192;40.182;44.516;2023-09-19T14:49:39;24.50;54.50
34989;DHT22;21192;40.182;44.516;2023-09-19T14:52:09;24.50;54.60
34989;DHT22;21192;40.182;44.516;2023-09-19T14:54:36;24.40;54.70
34989;DHT22;21192;40.182;44.516;2023-09-19T14:57:04;24.40;54.90
34989;DHT22;21192;40.182;44.516;2023-09-19T14:59:32;24.30;55.10
34989;DHT22;21192;40.182;44.516;2023-09-19T15:02:00;24.20;55.30
34989;DHT22;21192;40.182;44.516;2023-09-19T15:04:27;24.10;55.50
34989;DHT22;21192;40.182;44.516;2023-09-19T15:06:53;24.00;55.70
34989;DHT22;21192;40.182;44.516;2023-09-19T15:09:21;24.00;56.00
34989;DHT22;21192;40.182;44.516;2023-09-19T15:11:54;23.90;56.10
34989;DHT22;21192;40.182;44.516;2023-09-19T15:14:21;23.90;56.30
34989;DHT22;21192;40.182;44.516;2023-09-19T15:16:48;23.80;56.50
34989;DHT22;21192;40.182;44.516;2023-09-19T15:19:14;23.60;56.70
34989;DHT22;21192;40.182;44.516;2023-09-19T15:21:41;23.60;56.90
34989;DHT22;21192;40.182;44.516;2023-09-19T15:24:07;23.50;57.00
34989;DHT22;21192;40.182;44.516;2023-09-19T15:26:37;23.40;57.20
34989;DHT22;21192;40.182;44.516;2023-09-19T15:29:07;23.40;57.30
34989;DHT22;21192;40.182;44.516;2023-09-19T15:31:35;23.30;57.40
34989;DHT22;21192;40.182;44.516;2023-09-19T15:34:04;23.20;57.50
34989;DHT22;21192;40.182;44.516;2023-09-19T15:36:31;23.20;57.80
34989;DHT22;21192;40.182;44.516;2023-09-19T15:39:00;23.10;57.90
34989;DHT22;21192;40.182;44.516;2023-09-19T15:43:55;22.90;58.10
34989;DHT22;21192;40.182;44.516;2023-09-19T15:46:22;22.80;58.30
34989;DHT22;21192;40.182;44.516;2023-09-19T15:48:48;22.80;58.40
34989;DHT22;21192;40.182;44.516;2023-09-19T15:51:14;22.80;58.50
34989;DHT22;21192;40.182;44.516;2023-09-19T15:53:44;22.70;58.60
34989;DHT22;21192;40.182;44.516;2023-09-19T15:56:14;22.60;58.80
34989;DHT22;21192;40.182;44.516;2023-09-19T15:58:41;22.50;59.10
34989;DHT22;21192;40.182;44.516;2023-09-19T16:01:07;22.40;59.20
34989;DHT22;21192;40.182;44.516;2023-09-19T16:03:38;22.30;59.40
34989;DHT22;21192;40.182;44.516;2023-09-19T16:06:14;22.30;59.60
34989;DHT22;21192;40.182;44.516;2023-09-19T16:08:45;22.20;59.70
34989;DHT22;21192;40.182;44.516;2023-09-19T16:11:12;22.20;59.80
34989;DHT22;21192;40.182;44.516;2023-09-19T16:13:39;22.10;59.80
34989;DHT22;21192;40.182;44.516;2023-09-19T16:16:09;22.10;60.00
34989;DHT22;21192;40.182;44.516;2023-09-19T16:18:38;22.00;60.10
34989;DHT22;21192;40.182;44.516;2023-09-19T16:21:08;22.00;60.50
34989;DHT22;21192;40.182;44.516;2023-09-19T16:23:34;22.00;60.40
34989;DHT22;21192;40.182;44.516;2023-09-19T16:26:09;21.90;60.40
34989;DHT22;21192;40.182;44.516;2023-09-19T16:28:36;21.90;60.40
34989;DHT22;21192;40.182;44.516;2023-09-19T16:31:03;21.90;60.50